MSC Portugal — D5NP7 — position and weather

sailwx.info

Track history (hours):
 
Tides and Currents Weather Stations Pressure Air Temp Water Temp Dewpoint Dewpoint Depression Visibility Wind Speed Wind Dir Waves Ship Positions

MSC Portugal

Last reported at 2017-Nov-14 18:28 UTC. Time now 2017-Nov-19 16:12 UTC.
Position N 35°45' E 024°34'.

Length 304 m; draft 14.2 m.

Type: Ship (hazmat cat A). MMSI: 636017974.

Date/timePositionNaut miles runAvg speedWind from/ knotsBaromVisibWave heightAir tempDewpointWater temp
2017-Nov-14 18:28N 35°45' E 024°34'817.9
2017-Nov-14 18:00N 35°45' E 024°24'  
2017-Nov-12 05:58N 39°02' E 002°43'817.0
2017-Nov-12 05:31N 39°04' E 002°33'3916.4
2017-Nov-12 03:10N 39°10' E 001°44'215.6
2017-Nov-12 03:01N 39°10' E 001°41'128 3.0
2017-Nov-10 08:51N 37°44' W 000°18'618.4
2017-Nov-10 08:30N 37°38' W 000°22'918.3
2017-Nov-10 08:00N 37°29' W 000°25'1217.5
2017-Nov-10 07:18N 37°20' W 000°36'618.3
2017-Nov-10 06:57N 37°16' W 000°42'918.4
2017-Nov-10 06:28N 37°11' W 000°51'22019.1
2017-Nov-09 18:56N 35°60' W 005°10'921.0
2017-Nov-09 18:30N 35°58' W 005°21'17218.5
2017-Nov-09 09:13N 36°29' W 008°51'11217.5
2017-Nov-09 02:50N 38°08' W 009°56'1319.5
2017-Nov-09 02:11N 38°21' W 009°59'319.5
2017-Nov-09 02:00N 38°24' W 010°00'1019.8
2017-Nov-09 01:30N 38°34' W 010°03'1019.6
2017-Nov-09 01:00N 38°44' W 010°06'1019.5
2017-Nov-09 00:30N 38°53' W 010°06'1019.4
2017-Nov-09 00:00N 39°03' W 010°06'1019.9
2017-Nov-08 23:30N 39°13' W 010°06'1019.4
2017-Nov-08 23:00N 39°23' W 010°06'66118.7
2017-Nov-07 11:36N 49°37' W 004°25'420.9
2017-Nov-07 11:24N 49°39' W 004°19'820.3
2017-Nov-07 11:00N 49°41' W 004°07'1019.9
2017-Nov-07 10:29N 49°45' W 003°52'919.4
2017-Nov-07 10:00N 49°48' W 003°38'918.7
2017-Nov-07 09:30N 49°50' W 003°25'918.0
2017-Nov-07 09:00N 49°53' W 003°11'816.9
2017-Nov-07 08:30N 49°57' W 002°59'816.3
2017-Nov-07 08:00N 49°60' W 002°48'816.7
2017-Nov-07 07:30N 50°01' W 002°35'2117.8
2017-Nov-07 06:20N 50°07' W 002°04'619.1
2017-Nov-07 06:01N 50°09' W 001°54'1019.7
2017-Nov-07 05:31N 50°12' W 001°40'1020.9
2017-Nov-07 05:01N 50°15' W 001°24'1121.9
2017-Nov-07 04:30N 50°19' W 001°08'1222.1
2017-Nov-07 03:57N 50°22' W 000°49'1421.6
2017-Nov-07 03:18N 50°25' W 000°28'620.9
2017-Nov-07 03:01N 50°27' W 000°18'1020.3
2017-Nov-07 02:30N 50°30' W 000°03'1019.8
2017-Nov-07 02:01N 50°33' E 000°12'1019.3
2017-Nov-07 01:31N 50°35' E 000°26'918.4
2017-Nov-07 01:01N 50°39' E 000°40'918.1
2017-Nov-07 00:31N 50°44' E 000°52'917.6
2017-Nov-07 00:01N 50°49' E 001°03'917.6
2017-Nov-06 23:30N 50°54' E 001°15'918.3
2017-Nov-06 23:01N 51°00' E 001°25'1020.4
2017-Nov-06 22:30N 51°07' E 001°36'1121.5
2017-Nov-06 22:01N 51°15' E 001°48'1121.7
2017-Nov-06 21:30N 51°25' E 001°57'1121.4
2017-Nov-06 21:01N 51°33' E 002°08'1120.9
2017-Nov-06 20:30N 51°40' E 002°19'67 3.7
2017-Nov-06 02:29N 51°58' E 004°04'0 0.0
2017-Nov-06 01:59N 51°58' E 004°04'0 0.0
2017-Nov-06 01:29N 51°58' E 004°04'0 0.0
2017-Nov-06 00:59N 51°58' E 004°04'0 0.0
2017-Nov-06 00:29N 51°58' E 004°04'0 0.0
2017-Nov-05 23:59N 51°58' E 004°04'0 0.0
2017-Nov-05 23:29N 51°58' E 004°04'0 0.0
2017-Nov-05 22:59N 51°58' E 004°04'0 0.0
2017-Nov-05 22:29N 51°58' E 004°04'0 0.0
2017-Nov-05 21:59N 51°58' E 004°04'0 0.0
2017-Nov-05 21:29N 51°58' E 004°04'0 0.0
2017-Nov-05 20:59N 51°58' E 004°04'0 0.0
2017-Nov-05 20:29N 51°58' E 004°04'0 0.0
2017-Nov-05 20:00N 51°58' E 004°04'1 2.7
2017-Nov-05 19:30N 51°59' E 004°04'5 9.3
2017-Nov-05 19:01N 52°00' E 003°57'4 7.4
2017-Nov-05 18:30N 52°00' E 003°51'4 7.3
2017-Nov-05 18:00N 51°59' E 003°46'611.3
2017-Nov-05 17:30N 51°58' E 003°37'1 1.4
2017-Nov-05 16:58N 51°58' E 003°35'0 0.9
2017-Nov-05 16:30N 51°58' E 003°35'0 1.0
2017-Nov-05 16:00N 51°58' E 003°34'1 1.1
2017-Nov-05 15:30N 51°58' E 003°33'1 1.3
2017-Nov-05 15:00N 51°58' E 003°32'1 1.5
2017-Nov-05 14:30N 51°58' E 003°31'1 1.6
2017-Nov-05 14:00N 51°58' E 003°30'3 6.3
2017-Nov-05 13:30N 51°55' E 003°26'5 7.2
2017-Nov-05 12:49N 51°52' E 003°21'3 7.6
2017-Nov-05 12:26N 51°49' E 003°19'3 6.5
2017-Nov-05 11:59N 51°46' E 003°17'3 5.6
2017-Nov-05 11:30N 51°44' E 003°16'5 9.5
2017-Nov-05 11:00N 51°40' E 003°12'612.1
2017-Nov-05 10:30N 51°34' E 003°10'612.5
2017-Nov-05 10:00N 51°29' E 003°03'5 9.3
2017-Nov-05 09:31N 51°25' E 003°01'713.8
2017-Nov-05 09:01N 51°24' E 003°12'714.0
2017-Nov-05 08:30N 51°25' E 003°24'713.0
2017-Nov-05 08:00N 51°25' E 003°34'4 7.1
2017-Nov-05 07:30N 51°26' E 003°39'713.5
2017-Nov-05 07:01N 51°21' E 003°47'714.2
2017-Nov-05 06:30N 51°24' E 003°57'4 7.5
2017-Nov-05 06:01N 51°23' E 004°03'612.5
2017-Nov-05 05:30N 51°23' E 004°13'510.0
2017-Nov-05 05:00N 51°18' E 004°16'1 1.2
2017-Nov-05 04:30N 51°18' E 004°16'0 0.0
2017-Nov-05 04:00N 51°18' E 004°16'0 0.0
2017-Nov-05 03:30N 51°18' E 004°16'0 0.0
2017-Nov-05 03:00N 51°18' E 004°16'0 0.0
2017-Nov-05 02:30N 51°18' E 004°16'0 0.0
2017-Nov-05 02:00N 51°18' E 004°16'0 0.0
2017-Nov-05 01:30N 51°18' E 004°16'0 0.0
2017-Nov-05 01:00N 51°18' E 004°16'0 0.0
2017-Nov-05 00:30N 51°18' E 004°16'0 0.0
2017-Nov-05 00:00N 51°18' E 004°16'0 0.0
2017-Nov-04 23:30N 51°18' E 004°16'0 0.0
2017-Nov-04 23:00N 51°18' E 004°16'0 0.0
2017-Nov-04 22:30N 51°18' E 004°16'0 0.0
2017-Nov-04 22:00N 51°18' E 004°16'0 0.0
2017-Nov-04 21:30N 51°18' E 004°16'0 0.0
2017-Nov-04 20:57N 51°18' E 004°16'0 0.0
2017-Nov-04 20:30N 51°18' E 004°16'0 0.0
2017-Nov-04 20:00N 51°18' E 004°16'0 0.0
2017-Nov-04 19:30N 51°18' E 004°16'0 0.0
2017-Nov-04 19:00N 51°18' E 004°16'0 0.0
2017-Nov-04 18:30N 51°18' E 004°16'  
Track history (hours):
 
Tides and Currents Weather Stations Pressure Air Temp Water Temp Dewpoint Dewpoint Depression Visibility Wind Speed Wind Dir Waves Ship Positions

MSC Portugal

Last reported at 2017-Nov-14 18:28 UTC. Time now 2017-Nov-19 16:12 UTC.
Position N 35°45' E 024°34'.

Length 304 m; draft 14.2 m.

Type: Ship (hazmat cat A). MMSI: 636017974.

Date/timePositionNaut miles runAvg speedWind from/ knotsBaromVisibWave heightAir tempDewpointWater temp
2017-Nov-14 18:28N 35°45' E 024°34'817.9
2017-Nov-14 18:00N 35°45' E 024°24'  
2017-Nov-12 05:58N 39°02' E 002°43'817.0
2017-Nov-12 05:31N 39°04' E 002°33'3916.4
2017-Nov-12 03:10N 39°10' E 001°44'215.6
2017-Nov-12 03:01N 39°10' E 001°41'128 3.0
2017-Nov-10 08:51N 37°44' W 000°18'618.4
2017-Nov-10 08:30N 37°38' W 000°22'918.3
2017-Nov-10 08:00N 37°29' W 000°25'1217.5
2017-Nov-10 07:18N 37°20' W 000°36'618.3
2017-Nov-10 06:57N 37°16' W 000°42'918.4
2017-Nov-10 06:28N 37°11' W 000°51'22019.1
2017-Nov-09 18:56N 35°60' W 005°10'921.0
2017-Nov-09 18:30N 35°58' W 005°21'17218.5
2017-Nov-09 09:13N 36°29' W 008°51'11217.5
2017-Nov-09 02:50N 38°08' W 009°56'1319.5
2017-Nov-09 02:11N 38°21' W 009°59'319.5
2017-Nov-09 02:00N 38°24' W 010°00'1019.8
2017-Nov-09 01:30N 38°34' W 010°03'1019.6
2017-Nov-09 01:00N 38°44' W 010°06'1019.5
2017-Nov-09 00:30N 38°53' W 010°06'1019.4
2017-Nov-09 00:00N 39°03' W 010°06'1019.9
2017-Nov-08 23:30N 39°13' W 010°06'1019.4
2017-Nov-08 23:00N 39°23' W 010°06'66118.7
2017-Nov-07 11:36N 49°37' W 004°25'420.9
2017-Nov-07 11:24N 49°39' W 004°19'820.3
2017-Nov-07 11:00N 49°41' W 004°07'1019.9
2017-Nov-07 10:29N 49°45' W 003°52'919.4
2017-Nov-07 10:00N 49°48' W 003°38'918.7
2017-Nov-07 09:30N 49°50' W 003°25'918.0
2017-Nov-07 09:00N 49°53' W 003°11'816.9
2017-Nov-07 08:30N 49°57' W 002°59'816.3
2017-Nov-07 08:00N 49°60' W 002°48'816.7
2017-Nov-07 07:30N 50°01' W 002°35'2117.8
2017-Nov-07 06:20N 50°07' W 002°04'619.1
2017-Nov-07 06:01N 50°09' W 001°54'1019.7
2017-Nov-07 05:31N 50°12' W 001°40'1020.9
2017-Nov-07 05:01N 50°15' W 001°24'1121.9
2017-Nov-07 04:30N 50°19' W 001°08'1222.1
2017-Nov-07 03:57N 50°22' W 000°49'1421.6
2017-Nov-07 03:18N 50°25' W 000°28'620.9
2017-Nov-07 03:01N 50°27' W 000°18'1020.3
2017-Nov-07 02:30N 50°30' W 000°03'1019.8
2017-Nov-07 02:01N 50°33' E 000°12'1019.3
2017-Nov-07 01:31N 50°35' E 000°26'918.4
2017-Nov-07 01:01N 50°39' E 000°40'918.1
2017-Nov-07 00:31N 50°44' E 000°52'917.6
2017-Nov-07 00:01N 50°49' E 001°03'917.6
2017-Nov-06 23:30N 50°54' E 001°15'918.3
2017-Nov-06 23:01N 51°00' E 001°25'1020.4
2017-Nov-06 22:30N 51°07' E 001°36'1121.5
2017-Nov-06 22:01N 51°15' E 001°48'1121.7
2017-Nov-06 21:30N 51°25' E 001°57'1121.4
2017-Nov-06 21:01N 51°33' E 002°08'1120.9
2017-Nov-06 20:30N 51°40' E 002°19'67 3.7
2017-Nov-06 02:29N 51°58' E 004°04'0 0.0
2017-Nov-06 01:59N 51°58' E 004°04'0 0.0
2017-Nov-06 01:29N 51°58' E 004°04'0 0.0
2017-Nov-06 00:59N 51°58' E 004°04'0 0.0
2017-Nov-06 00:29N 51°58' E 004°04'0 0.0
2017-Nov-05 23:59N 51°58' E 004°04'0 0.0
2017-Nov-05 23:29N 51°58' E 004°04'0 0.0
2017-Nov-05 22:59N 51°58' E 004°04'0 0.0
2017-Nov-05 22:29N 51°58' E 004°04'0 0.0
2017-Nov-05 21:59N 51°58' E 004°04'0 0.0
2017-Nov-05 21:29N 51°58' E 004°04'0 0.0
2017-Nov-05 20:59N 51°58' E 004°04'0 0.0
2017-Nov-05 20:29N 51°58' E 004°04'0 0.0
2017-Nov-05 20:00N 51°58' E 004°04'1 2.7
2017-Nov-05 19:30N 51°59' E 004°04'5 9.3
2017-Nov-05 19:01N 52°00' E 003°57'4 7.4
2017-Nov-05 18:30N 52°00' E 003°51'4 7.3
2017-Nov-05 18:00N 51°59' E 003°46'611.3
2017-Nov-05 17:30N 51°58' E 003°37'1 1.4
2017-Nov-05 16:58N 51°58' E 003°35'0 0.9
2017-Nov-05 16:30N 51°58' E 003°35'0 1.0
2017-Nov-05 16:00N 51°58' E 003°34'1 1.1
2017-Nov-05 15:30N 51°58' E 003°33'1 1.3
2017-Nov-05 15:00N 51°58' E 003°32'1 1.5
2017-Nov-05 14:30N 51°58' E 003°31'1 1.6
2017-Nov-05 14:00N 51°58' E 003°30'3 6.3
2017-Nov-05 13:30N 51°55' E 003°26'5 7.2
2017-Nov-05 12:49N 51°52' E 003°21'3 7.6
2017-Nov-05 12:26N 51°49' E 003°19'3 6.5
2017-Nov-05 11:59N 51°46' E 003°17'3 5.6
2017-Nov-05 11:30N 51°44' E 003°16'5 9.5
2017-Nov-05 11:00N 51°40' E 003°12'612.1
2017-Nov-05 10:30N 51°34' E 003°10'612.5
2017-Nov-05 10:00N 51°29' E 003°03'5 9.3
2017-Nov-05 09:31N 51°25' E 003°01'713.8
2017-Nov-05 09:01N 51°24' E 003°12'714.0
2017-Nov-05 08:30N 51°25' E 003°24'713.0
2017-Nov-05 08:00N 51°25' E 003°34'4 7.1
2017-Nov-05 07:30N 51°26' E 003°39'713.5
2017-Nov-05 07:01N 51°21' E 003°47'714.2
2017-Nov-05 06:30N 51°24' E 003°57'4 7.5
2017-Nov-05 06:01N 51°23' E 004°03'612.5
2017-Nov-05 05:30N 51°23' E 004°13'510.0
2017-Nov-05 05:00N 51°18' E 004°16'1 1.2
2017-Nov-05 04:30N 51°18' E 004°16'0 0.0
2017-Nov-05 04:00N 51°18' E 004°16'0 0.0
2017-Nov-05 03:30N 51°18' E 004°16'0 0.0
2017-Nov-05 03:00N 51°18' E 004°16'0 0.0
2017-Nov-05 02:30N 51°18' E 004°16'0 0.0
2017-Nov-05 02:00N 51°18' E 004°16'0 0.0
2017-Nov-05 01:30N 51°18' E 004°16'0 0.0
2017-Nov-05 01:00N 51°18' E 004°16'0 0.0
2017-Nov-05 00:30N 51°18' E 004°16'0 0.0
2017-Nov-05 00:00N 51°18' E 004°16'0 0.0
2017-Nov-04 23:30N 51°18' E 004°16'0 0.0
2017-Nov-04 23:00N 51°18' E 004°16'0 0.0
2017-Nov-04 22:30N 51°18' E 004°16'0 0.0
2017-Nov-04 22:00N 51°18' E 004°16'0 0.0
2017-Nov-04 21:30N 51°18' E 004°16'0 0.0
2017-Nov-04 20:57N 51°18' E 004°16'0 0.0
2017-Nov-04 20:30N 51°18' E 004°16'0 0.0
2017-Nov-04 20:00N 51°18' E 004°16'0 0.0
2017-Nov-04 19:30N 51°18' E 004°16'0 0.0
2017-Nov-04 19:00N 51°18' E 004°16'0 0.0
2017-Nov-04 18:30N 51°18' E 004°16'  

Dump ship's entire track history